createdAt,value
2022-08-01T00:05:43.936Z,100.00
2022-08-01T00:08:11.450Z,100.00
2022-08-01T00:10:39.114Z,100.00
2022-08-01T00:13:06.668Z,100.00
2022-08-01T00:15:34.352Z,100.00
2022-08-01T00:18:01.983Z,100.00
2022-08-01T00:20:29.940Z,100.00
2022-08-01T00:27:56.483Z,100.00
2022-08-01T00:30:24.471Z,100.00
2022-08-01T00:32:52.004Z,100.00
2022-08-01T00:35:19.941Z,100.00
2022-08-01T00:37:47.501Z,100.00
2022-08-01T00:40:15.088Z,100.00
2022-08-01T00:42:43.763Z,100.00
2022-08-01T00:49:23.923Z,100.00
2022-08-01T00:51:51.668Z,100.00
2022-08-01T00:54:19.744Z,100.00
2022-08-01T00:56:47.768Z,100.00
2022-08-01T00:59:18.074Z,100.00
2022-08-01T01:01:49.914Z,100.00
2022-08-01T01:04:18.007Z,100.00
2022-08-01T01:09:34.483Z,100.00
2022-08-01T01:12:12.385Z,100.00
2022-08-01T01:14:46.745Z,100.00
2022-08-01T01:17:17.526Z,100.00
2022-08-01T01:20:01.904Z,100.00
2022-08-01T01:22:48.585Z,100.00
2022-08-01T01:28:34.828Z,100.00
2022-08-01T01:31:07.355Z,100.00
2022-08-01T01:33:45.201Z,100.00
2022-08-01T01:36:17.652Z,100.00
2022-08-01T01:38:47.842Z,100.00
2022-08-01T01:41:18.067Z,100.00
2022-08-01T01:43:47.269Z,100.00
2022-08-01T01:51:21.968Z,100.00
2022-08-01T01:53:49.797Z,100.00
2022-08-01T01:56:18.276Z,100.00
2022-08-01T01:58:49.791Z,100.00
2022-08-01T02:01:58.748Z,100.00
2022-08-01T02:04:07.411Z,100.00
2022-08-01T02:06:36.331Z,100.00
2022-08-01T02:14:09.117Z,100.00
2022-08-01T02:16:40.695Z,100.00
2022-08-01T02:19:08.730Z,100.00
2022-08-01T02:21:42.449Z,100.00
2022-08-01T02:24:15.718Z,100.00
2022-08-01T02:26:47.469Z,100.00
2022-08-01T02:29:22.690Z,100.00
2022-08-01T02:36:50.402Z,100.00
2022-08-01T02:39:22.187Z,100.00
2022-08-01T02:41:55.656Z,100.00
2022-08-01T02:44:25.974Z,100.00
2022-08-01T02:46:58.125Z,100.00
2022-08-01T02:49:29.012Z,100.00
2022-08-01T02:52:00.068Z,100.00
2022-08-01T02:59:02.703Z,100.00
2022-08-01T03:01:33.030Z,100.00
2022-08-01T03:04:00.954Z,100.00
2022-08-01T03:06:30.255Z,100.00
2022-08-01T03:08:59.265Z,100.00
2022-08-01T03:11:28.896Z,100.00
2022-08-01T03:13:58.988Z,100.00
2022-08-01T03:21:28.911Z,100.00
2022-08-01T03:23:58.976Z,100.00
2022-08-01T03:26:29.766Z,100.00
2022-08-01T03:29:03.043Z,100.00
2022-08-01T03:31:31.375Z,100.00
2022-08-01T03:34:04.027Z,100.00
2022-08-01T03:39:13.700Z,100.00
2022-08-01T03:41:44.865Z,100.00
2022-08-01T03:44:16.733Z,100.00
2022-08-01T03:46:48.322Z,100.00
2022-08-01T03:49:19.620Z,100.00
2022-08-01T03:51:49.933Z,100.00
2022-08-01T03:54:29.558Z,100.00
2022-08-01T04:01:24.210Z,100.00
2022-08-01T04:03:52.078Z,100.00
2022-08-01T04:06:19.780Z,100.00
2022-08-01T04:08:55.795Z,100.00
2022-08-01T04:11:25.252Z,100.00
2022-08-01T04:13:53.893Z,100.00
2022-08-01T04:16:24.032Z,100.00
2022-08-01T04:21:36.696Z,100.00
2022-08-01T04:24:08.772Z,100.00
2022-08-01T04:26:38.681Z,100.00
2022-08-01T04:29:07.730Z,100.00
2022-08-01T04:31:37.079Z,100.00
2022-08-01T04:34:06.735Z,100.00
2022-08-01T04:39:19.047Z,100.00
2022-08-01T04:41:47.531Z,100.00
2022-08-01T04:44:15.514Z,100.00
2022-08-01T04:46:43.523Z,100.00
2022-08-01T04:49:12.294Z,100.00
2022-08-01T04:51:51.959Z,100.00
2022-08-01T04:54:22.034Z,100.00
2022-08-01T05:01:53.060Z,100.00
2022-08-01T05:04:20.533Z,100.00
2022-08-01T05:06:47.932Z,100.00
2022-08-01T05:09:15.451Z,100.00
2022-08-01T05:11:42.887Z,100.00
2022-08-01T05:14:10.341Z,100.00
2022-08-01T05:16:38.030Z,100.00
2022-08-01T05:23:43.088Z,100.00
2022-08-01T05:26:11.632Z,100.00
2022-08-01T05:28:42.490Z,100.00
2022-08-01T05:31:10.264Z,100.00
2022-08-01T05:33:37.696Z,100.00
2022-08-01T05:36:06.052Z,100.00
2022-08-01T05:38:33.628Z,100.00
2022-08-01T05:45:50.793Z,100.00
2022-08-01T05:48:18.330Z,100.00
2022-08-01T05:50:46.409Z,100.00
2022-08-01T05:53:13.929Z,100.00
2022-08-01T05:55:41.404Z,100.00
2022-08-01T05:58:08.983Z,100.00
2022-08-01T06:00:40.096Z,100.00
2022-08-01T06:08:10.672Z,100.00
2022-08-01T06:10:38.085Z,100.00
2022-08-01T06:13:05.550Z,100.00
2022-08-01T06:15:33.390Z,100.00
2022-08-01T06:18:00.861Z,100.00
2022-08-01T06:20:28.441Z,100.00
2022-08-01T06:22:55.915Z,100.00
2022-08-01T06:28:01.712Z,100.00
2022-08-01T06:30:29.369Z,100.00
2022-08-01T06:32:59.001Z,100.00
2022-08-01T06:35:27.204Z,100.00
2022-08-01T06:37:54.948Z,100.00
2022-08-01T06:40:22.566Z,100.00
2022-08-01T06:42:50.271Z,100.00
2022-08-01T06:49:57.485Z,100.00
2022-08-01T06:52:25.363Z,100.00
2022-08-01T06:54:53.532Z,100.00
2022-08-01T06:57:21.333Z,100.00
2022-08-01T06:59:54.126Z,100.00
2022-08-01T07:02:22.154Z,100.00
2022-08-01T07:04:49.658Z,100.00
2022-08-01T07:11:59.529Z,96.49
2022-08-01T07:14:27.218Z,94.91
2022-08-01T07:16:54.955Z,97.28
2022-08-01T07:19:22.575Z,95.97
2022-08-01T07:21:50.288Z,94.97
2022-08-01T07:24:19.593Z,95.00
2022-08-01T07:26:53.436Z,94.14
2022-08-01T07:33:55.445Z,93.17
2022-08-01T07:36:23.041Z,93.84
2022-08-01T07:38:50.558Z,92.09
2022-08-01T07:41:18.280Z,93.33
2022-08-01T07:43:56.059Z,92.99
2022-08-01T07:46:25.408Z,93.96
2022-08-01T07:48:53.112Z,92.17
2022-08-01T07:56:20.182Z,90.28
2022-08-01T07:58:48.765Z,90.54
2022-08-01T08:01:16.198Z,91.20
2022-08-01T08:03:43.633Z,91.13
2022-08-01T08:06:11.162Z,89.32
2022-08-01T08:08:38.699Z,92.07
2022-08-01T08:11:06.216Z,86.88
2022-08-01T08:19:22.672Z,88.80
2022-08-01T08:22:07.752Z,87.61
2022-08-01T08:24:35.640Z,87.86
2022-08-01T08:27:03.294Z,88.41
2022-08-01T08:29:32.920Z,83.74
2022-08-01T08:32:01.217Z,83.56
2022-08-01T08:34:30.017Z,87.88
2022-08-01T08:41:37.831Z,87.22
2022-08-01T08:44:10.031Z,84.01
2022-08-01T08:46:44.270Z,83.68
2022-08-01T08:49:13.282Z,84.12
2022-08-01T08:51:44.472Z,78.01
2022-08-01T08:54:13.700Z,78.74
2022-08-01T08:56:42.719Z,79.27
2022-08-01T09:04:13.767Z,79.71
2022-08-01T09:06:41.486Z,80.73
2022-08-01T09:09:10.102Z,78.08
2022-08-01T09:11:37.934Z,81.35
2022-08-01T09:14:08.213Z,78.46
2022-08-01T09:16:38.565Z,79.21
2022-08-01T09:19:16.120Z,78.83
2022-08-01T09:26:00.938Z,78.16
2022-08-01T09:28:29.701Z,77.89
2022-08-01T09:30:57.456Z,81.40
2022-08-01T09:33:25.578Z,76.91
2022-08-01T09:35:56.590Z,74.95
2022-08-01T09:38:27.595Z,72.74
2022-08-01T09:40:58.545Z,74.97
2022-08-01T09:48:12.959Z,73.61
2022-08-01T09:50:42.039Z,73.39
2022-08-01T09:53:10.058Z,76.37
2022-08-01T09:55:52.937Z,73.95
2022-08-01T09:58:21.070Z,76.51
2022-08-01T10:01:00.227Z,73.79
2022-08-01T10:03:30.121Z,72.84
2022-08-01T10:11:12.150Z,75.13
2022-08-01T10:13:41.033Z,74.37
2022-08-01T10:16:10.057Z,72.29
2022-08-01T10:18:42.003Z,72.71
2022-08-01T10:21:11.422Z,74.24
2022-08-01T10:23:40.171Z,76.04
2022-08-01T10:29:45.939Z,73.67
2022-08-01T10:32:17.204Z,71.50
2022-08-01T10:34:45.833Z,71.35
2022-08-01T10:37:15.087Z,71.85
2022-08-01T10:39:43.840Z,71.61
2022-08-01T10:42:15.584Z,73.78
2022-08-01T10:44:46.782Z,73.34
2022-08-01T10:52:20.036Z,71.13
2022-08-01T10:54:52.244Z,71.42
2022-08-01T10:57:23.239Z,74.41
2022-08-01T11:00:00.905Z,74.62
2022-08-01T11:02:33.993Z,70.06
2022-08-01T11:05:04.311Z,70.19
2022-08-01T11:07:54.853Z,70.93
2022-08-01T11:15:29.037Z,71.23
2022-08-01T11:18:03.428Z,70.89
2022-08-01T11:20:34.167Z,70.81
2022-08-01T11:23:28.075Z,71.11
2022-08-01T11:26:17.431Z,72.29
2022-08-01T11:29:05.057Z,71.69
2022-08-01T11:35:02.960Z,71.86
2022-08-01T11:37:34.534Z,72.83
2022-08-01T11:40:16.566Z,69.81
2022-08-01T11:42:45.192Z,71.83
2022-08-01T11:45:18.091Z,68.97
2022-08-01T11:47:49.810Z,71.24
2022-08-01T11:54:05.906Z,68.71
2022-08-01T11:56:34.250Z,68.08
2022-08-01T11:59:01.718Z,67.99
2022-08-01T12:01:31.514Z,67.96
2022-08-01T12:03:59.081Z,65.95
2022-08-01T12:06:29.042Z,64.07
2022-08-01T12:09:15.405Z,63.19
2022-08-01T12:16:33.231Z,59.77
2022-08-01T12:19:01.143Z,59.63
2022-08-01T12:21:28.595Z,61.22
2022-08-01T12:24:02.372Z,57.59
2022-08-01T12:26:41.351Z,57.46
2022-08-01T12:29:08.821Z,58.44
2022-08-01T12:31:37.827Z,55.92
2022-08-01T12:36:47.709Z,56.15
2022-08-01T12:39:15.367Z,53.91
2022-08-01T12:41:44.804Z,55.80
2022-08-01T12:44:15.579Z,55.34
2022-08-01T12:46:44.596Z,57.09
2022-08-01T12:49:12.197Z,55.30
2022-08-01T12:51:40.108Z,59.75
2022-08-01T12:59:25.945Z,58.48
2022-08-01T13:01:59.224Z,58.85
2022-08-01T13:04:27.187Z,57.74
2022-08-01T13:06:55.378Z,56.70
2022-08-01T13:09:22.835Z,55.71
2022-08-01T13:11:58.898Z,55.91
2022-08-01T13:14:33.555Z,53.18
2022-08-01T13:21:56.391Z,54.63
2022-08-01T13:24:26.546Z,54.31
2022-08-01T13:26:59.039Z,58.08
2022-08-01T13:29:34.397Z,58.90
2022-08-01T13:32:13.169Z,60.30
2022-08-01T13:35:02.317Z,60.10
2022-08-01T13:37:32.415Z,57.83
2022-08-01T13:45:04.055Z,58.49
2022-08-01T13:48:03.334Z,60.25
2022-08-01T13:50:29.692Z,60.68
2022-08-01T13:52:57.227Z,58.07
2022-08-01T13:55:24.742Z,55.57
2022-08-01T13:57:52.227Z,53.49
2022-08-01T14:00:21.231Z,51.64
2022-08-01T14:07:48.542Z,54.89
2022-08-01T14:10:19.335Z,57.33
2022-08-01T14:12:48.573Z,60.03
2022-08-01T14:15:36.500Z,63.13
2022-08-01T14:18:05.913Z,62.95
2022-08-01T14:20:34.028Z,64.58
2022-08-01T14:23:02.867Z,65.33
2022-08-01T14:28:08.441Z,63.85
2022-08-01T14:30:36.040Z,64.24
2022-08-01T14:33:04.150Z,61.38
2022-08-01T14:36:01.758Z,60.66
2022-08-01T14:38:21.866Z,58.13
2022-08-01T14:40:59.818Z,59.58
2022-08-01T14:43:33.139Z,59.02
2022-08-01T14:48:44.957Z,58.77
2022-08-01T14:51:12.664Z,59.76
2022-08-01T14:53:41.583Z,60.74
2022-08-01T14:56:14.843Z,63.09
2022-08-01T14:58:42.552Z,64.34
2022-08-01T15:01:10.216Z,66.29
2022-08-01T15:03:38.594Z,64.66
2022-08-01T15:08:44.690Z,67.66
2022-08-01T15:11:12.570Z,68.05
2022-08-01T15:13:42.562Z,68.84
2022-08-01T15:16:11.905Z,67.28
2022-08-01T15:18:42.398Z,69.29
2022-08-01T15:21:14.542Z,68.32
2022-08-01T15:23:50.722Z,67.15
2022-08-01T15:30:56.254Z,67.83
2022-08-01T15:33:24.048Z,66.53
2022-08-01T15:35:52.938Z,67.84
2022-08-01T15:38:21.936Z,66.05
2022-08-01T15:40:49.559Z,64.43
2022-08-01T15:43:17.153Z,64.64
2022-08-01T15:45:47.756Z,64.77
2022-08-01T15:52:57.923Z,65.98
2022-08-01T15:55:25.794Z,65.60
2022-08-01T15:57:53.442Z,67.28
2022-08-01T16:00:21.080Z,64.87
2022-08-01T16:02:48.724Z,66.11
2022-08-01T16:05:20.331Z,65.02
2022-08-01T16:07:59.686Z,66.74
2022-08-01T16:15:36.151Z,64.74
2022-08-01T16:18:05.612Z,64.89
2022-08-01T16:20:33.667Z,64.17
2022-08-01T16:23:01.410Z,65.27
2022-08-01T16:25:29.235Z,64.84
2022-08-01T16:27:56.929Z,64.97
2022-08-01T16:30:25.532Z,64.19
2022-08-01T16:37:06.390Z,64.55
2022-08-01T16:39:35.490Z,64.75
2022-08-01T16:42:03.363Z,64.39
2022-08-01T16:44:33.773Z,65.50
2022-08-01T16:47:03.757Z,64.60
2022-08-01T16:49:31.978Z,65.36
2022-08-01T16:54:39.371Z,65.13
2022-08-01T16:57:08.628Z,66.12
2022-08-01T16:59:41.202Z,67.71
2022-08-01T17:02:10.886Z,67.58
2022-08-01T17:04:38.670Z,68.65
2022-08-01T17:07:06.511Z,68.73
2022-08-01T17:09:34.368Z,67.91
2022-08-01T17:16:57.129Z,69.65
2022-08-01T17:19:26.779Z,70.09
2022-08-01T17:22:01.153Z,71.82
2022-08-01T17:24:28.913Z,71.87
2022-08-01T17:26:56.470Z,72.08
2022-08-01T17:29:24.169Z,71.72
2022-08-01T17:31:52.192Z,72.26
2022-08-01T17:39:23.515Z,73.93
2022-08-01T17:41:51.653Z,73.89
2022-08-01T17:44:19.334Z,74.15
2022-08-01T17:46:47.036Z,74.86
2022-08-01T17:49:14.692Z,74.02
2022-08-01T17:51:42.473Z,75.27
2022-08-01T17:54:11.836Z,75.51
2022-08-01T18:01:38.684Z,77.17
2022-08-01T18:04:13.242Z,78.60
2022-08-01T18:06:58.507Z,77.43
2022-08-01T18:09:26.753Z,77.88
2022-08-01T18:11:54.558Z,77.27
2022-08-01T18:14:22.231Z,77.49
2022-08-01T18:20:06.105Z,77.83
2022-08-01T18:22:34.224Z,78.66
2022-08-01T18:25:08.355Z,79.36
2022-08-01T18:28:23.491Z,79.09
2022-08-01T18:30:25.781Z,79.81
2022-08-01T18:32:54.363Z,80.05
2022-08-01T18:38:45.565Z,83.19
2022-08-01T18:41:13.641Z,89.08
2022-08-01T18:43:41.307Z,90.44
2022-08-01T18:46:09.505Z,92.84
2022-08-01T18:48:37.378Z,94.52
2022-08-01T18:51:08.440Z,95.25
2022-08-01T18:53:38.724Z,95.34
2022-08-01T19:00:14.713Z,100.00
2022-08-01T19:02:42.309Z,100.00
2022-08-01T19:05:10.535Z,100.00
2022-08-01T19:08:04.355Z,99.63
2022-08-01T19:10:26.737Z,100.00
2022-08-01T19:12:54.333Z,100.00
2022-08-01T19:18:01.629Z,100.00
2022-08-01T19:20:29.963Z,100.00
2022-08-01T19:22:57.818Z,100.00
2022-08-01T19:25:25.996Z,100.00
2022-08-01T19:27:57.481Z,100.00
2022-08-01T19:30:25.418Z,100.00
2022-08-01T19:32:56.276Z,100.00
2022-08-01T19:39:47.418Z,100.00
2022-08-01T19:42:14.935Z,100.00
2022-08-01T19:44:44.649Z,100.00
2022-08-01T19:47:13.568Z,100.00
2022-08-01T19:49:41.224Z,100.00
2022-08-01T19:52:09.984Z,100.00
2022-08-01T19:54:41.349Z,100.00
2022-08-01T20:02:08.540Z,100.00
2022-08-01T20:04:36.805Z,100.00
2022-08-01T20:07:04.660Z,100.00
2022-08-01T20:09:33.508Z,100.00
2022-08-01T20:12:01.021Z,100.00
2022-08-01T20:14:28.528Z,100.00
2022-08-01T20:16:56.702Z,100.00
2022-08-01T20:24:29.246Z,100.00
2022-08-01T20:27:01.275Z,100.00
2022-08-01T20:29:29.991Z,100.00
2022-08-01T20:31:58.538Z,100.00
2022-08-01T20:34:26.941Z,100.00
2022-08-01T20:36:56.811Z,100.00
2022-08-01T20:39:25.004Z,100.00
2022-08-01T20:46:09.098Z,100.00
2022-08-01T20:48:36.647Z,100.00
2022-08-01T20:51:16.076Z,100.00
2022-08-01T20:53:45.152Z,100.00
2022-08-01T20:56:17.567Z,100.00
2022-08-01T20:58:58.268Z,100.00
2022-08-01T21:01:30.257Z,100.00
2022-08-01T21:09:05.729Z,100.00
2022-08-01T21:11:40.673Z,100.00
2022-08-01T21:14:12.504Z,100.00
2022-08-01T21:16:46.600Z,100.00
2022-08-01T21:19:20.193Z,100.00
2022-08-01T21:21:54.822Z,100.00
2022-08-01T21:28:54.741Z,100.00
2022-08-01T21:31:23.843Z,100.00
2022-08-01T21:34:00.735Z,100.00
2022-08-01T21:36:31.982Z,100.00
2022-08-01T21:39:00.569Z,100.00
2022-08-01T21:41:56.160Z,100.00
2022-08-01T21:47:43.887Z,100.00
2022-08-01T21:50:11.333Z,100.00
2022-08-01T21:52:44.718Z,100.00
2022-08-01T21:55:34.939Z,100.00
2022-08-01T21:58:28.762Z,100.00
2022-08-01T22:01:03.746Z,100.00
2022-08-01T22:06:23.985Z,100.00
2022-08-01T22:08:53.290Z,100.00
2022-08-01T22:11:23.096Z,100.00
2022-08-01T22:13:54.177Z,100.00
2022-08-01T22:16:22.319Z,100.00
2022-08-01T22:18:50.941Z,100.00
2022-08-01T22:21:18.703Z,100.00
2022-08-01T22:28:15.335Z,100.00
2022-08-01T22:30:43.261Z,100.00
2022-08-01T22:33:16.962Z,100.00
2022-08-01T22:35:46.225Z,100.00
2022-08-01T22:38:13.980Z,100.00
2022-08-01T22:40:49.131Z,100.00
2022-08-01T22:43:38.567Z,100.00
2022-08-01T22:50:56.432Z,100.00
2022-08-01T22:53:32.953Z,100.00
2022-08-01T22:56:08.538Z,100.00
2022-08-01T22:58:36.394Z,100.00
2022-08-01T23:01:09.411Z,100.00
2022-08-01T23:03:40.706Z,100.00
2022-08-01T23:13:19.199Z,100.00
2022-08-01T23:15:52.069Z,100.00
2022-08-01T23:18:21.440Z,100.00
2022-08-01T23:20:50.516Z,100.00
2022-08-01T23:23:18.850Z,100.00
2022-08-01T23:25:59.913Z,100.00
2022-08-01T23:28:29.283Z,100.00
2022-08-01T23:36:07.405Z,100.00
2022-08-01T23:38:35.206Z,100.00
2022-08-01T23:41:14.271Z,100.00
2022-08-01T23:43:51.937Z,100.00
2022-08-01T23:46:19.968Z,100.00
2022-08-01T23:48:47.404Z,100.00
2022-08-01T23:51:24.262Z,100.00
2022-08-01T23:58:55.866Z,100.00
